createdAt,value
2018-10-05T00:02:19.889Z,46.6
2018-10-05T00:07:28.122Z,46.5
2018-10-05T00:17:49.237Z,47.2
2018-10-05T00:22:53.215Z,47.4
2018-10-05T00:28:01.549Z,47.5
2018-10-05T00:33:09.864Z,47.5
2018-10-05T00:38:18.213Z,48.1
2018-10-05T00:43:26.585Z,48.1
2018-10-05T00:48:34.955Z,47.7
2018-10-05T00:53:43.345Z,48.2
2018-10-05T00:58:51.704Z,48.2
2018-10-05T01:04:00.074Z,48.3
2018-10-05T01:09:08.486Z,48.4
2018-10-05T01:14:16.848Z,48.3
2018-10-05T01:19:25.233Z,48.4
2018-10-05T01:24:33.608Z,48.3
2018-10-05T01:29:41.973Z,48.7
2018-10-05T01:34:50.365Z,48.2
2018-10-05T01:39:58.780Z,48.2
2018-10-05T01:45:07.151Z,48.1
2018-10-05T01:50:15.553Z,48.1
2018-10-05T02:00:32.391Z,49.1
2018-10-05T02:05:40.773Z,49.1
2018-10-05T02:10:49.167Z,48.9
2018-10-05T02:15:57.585Z,48.8
2018-10-05T02:21:05.981Z,48.9
2018-10-05T02:26:14.395Z,48.9
2018-10-05T02:31:24.453Z,48.8
2018-10-05T02:36:31.403Z,48.9
2018-10-05T02:41:39.648Z,48.4
2018-10-05T02:46:48.060Z,48.6
2018-10-05T02:51:57.520Z,48.5
2018-10-05T02:57:04.966Z,48.9
2018-10-05T03:02:13.339Z,48.6
2018-10-05T03:07:21.769Z,48.5
2018-10-05T03:12:30.329Z,49.5
2018-10-05T03:17:38.620Z,49.7
2018-10-05T03:22:47.079Z,49.9
2018-10-05T03:27:55.551Z,50.2
2018-10-05T03:33:03.968Z,50.5
2018-10-05T03:43:20.859Z,51.1
2018-10-05T03:48:29.309Z,51.7
2018-10-05T03:53:38.028Z,52.4
2018-10-05T03:58:46.187Z,51.6
2018-10-05T04:09:03.068Z,52.3
2018-10-05T04:14:11.497Z,52
2018-10-05T04:19:19.962Z,52.5
2018-10-05T04:24:30.459Z,52.7
2018-10-05T04:34:45.345Z,52.4
2018-10-05T04:39:53.829Z,52.5
2018-10-05T04:50:10.696Z,52.2
2018-10-05T04:55:19.139Z,52.2
2018-10-05T05:00:27.645Z,52.3
2018-10-05T05:05:39.299Z,51.9
2018-10-05T05:10:44.414Z,52
2018-10-05T05:15:52.810Z,52.6
2018-10-05T05:26:09.628Z,51.9
2018-10-05T05:31:18.037Z,52.1
2018-10-05T05:36:27.586Z,52.4
2018-10-05T05:41:34.866Z,52.2
2018-10-05T05:46:43.214Z,52.1
2018-10-05T05:51:51.575Z,52.2
2018-10-05T05:56:59.931Z,51.6
2018-10-05T06:02:08.598Z,51.5
2018-10-05T06:12:25.069Z,52.4
2018-10-05T06:17:33.494Z,51.5
2018-10-05T06:22:41.816Z,51.4
2018-10-05T06:32:58.589Z,51.8
2018-10-05T06:43:16.051Z,49.6
2018-10-05T06:48:23.492Z,49.7
2018-10-05T06:53:31.709Z,49.4
2018-10-05T07:14:04.560Z,45.6
2018-10-05T07:19:11.896Z,45.1
2018-10-05T07:24:19.377Z,43.8
2018-10-05T07:29:27.043Z,42.2
2018-10-05T07:34:34.971Z,41.8
2018-10-05T07:39:42.981Z,40.8
2018-10-05T07:44:51.444Z,42.1
2018-10-05T08:05:20.024Z,39.9
2018-10-05T08:20:42.120Z,37.5
2018-10-05T08:36:03.537Z,34.4
2018-10-05T08:56:31.381Z,31.2
2018-10-05T09:01:38.421Z,29.5
2018-10-05T09:06:45.060Z,29.4
2018-10-05T09:27:11.938Z,25.9
2018-10-05T09:42:31.807Z,25.4
2018-10-05T09:47:38.328Z,24.9
2018-10-05T09:57:51.306Z,23.1
2018-10-05T10:02:57.778Z,22.4
2018-10-05T10:08:04.210Z,22.5
2018-10-05T10:18:17.044Z,22.8
2018-10-05T10:23:23.390Z,22.4
2018-10-05T10:38:42.599Z,21.5
2018-10-05T10:43:48.747Z,21.8
2018-10-05T10:48:54.984Z,21.2
2018-10-05T10:59:07.839Z,19.9
2018-10-05T11:04:13.871Z,20.6
2018-10-05T11:09:20.031Z,20.7
2018-10-05T11:19:32.606Z,20.3
2018-10-05T11:24:39.114Z,19.3
2018-10-05T11:29:44.923Z,19.5
2018-10-05T11:39:57.431Z,19.1
2018-10-05T11:45:03.631Z,18.2
2018-10-05T11:50:09.902Z,18.8
2018-10-05T12:00:22.432Z,17.7
2018-10-05T12:05:28.663Z,17.9
2018-10-05T12:15:41.238Z,17.5
2018-10-05T12:20:47.466Z,17.2
2018-10-05T12:25:53.899Z,17.4
2018-10-05T12:31:00.051Z,17.6
2018-10-05T12:41:12.632Z,16.8
2018-10-05T12:46:19.004Z,17.6
2018-10-05T12:51:25.284Z,17.3
2018-10-05T12:56:31.561Z,17.1
2018-10-05T13:01:37.885Z,17.1
2018-10-05T13:06:44.261Z,16.6
2018-10-05T13:11:50.847Z,16.6
2018-10-05T13:22:03.378Z,16.7
2018-10-05T13:27:09.811Z,17.5
2018-10-05T13:32:16.294Z,17.8
2018-10-05T13:47:36.003Z,18.7
2018-10-05T14:08:03.033Z,20.1
2018-10-05T14:13:09.749Z,20.4
2018-10-05T14:23:23.551Z,21.4
2018-10-05T14:28:30.759Z,21.4
2018-10-05T14:33:37.612Z,21.1
2018-10-05T14:48:58.584Z,21.3
2018-10-05T14:54:05.650Z,22.3
2018-10-05T14:59:12.807Z,22.2
2018-10-05T15:09:27.743Z,22
2018-10-05T15:14:34.231Z,22.1
2018-10-05T15:29:55.807Z,22.5
2018-10-05T15:45:17.493Z,22.1
2018-10-05T15:55:31.984Z,23.4
2018-10-05T16:05:46.804Z,23
2018-10-05T16:10:53.799Z,23.1
2018-10-05T16:16:01.100Z,23.4
2018-10-05T16:31:22.981Z,24.1
2018-10-05T16:36:30.320Z,24.2
2018-10-05T16:41:37.610Z,24.5
2018-10-05T16:46:45.038Z,24.3
2018-10-05T16:51:52.319Z,25
2018-10-05T16:56:59.639Z,25.6
2018-10-05T17:02:07.014Z,25.9
2018-10-05T17:07:14.376Z,26.1
2018-10-05T17:12:21.841Z,25.5
2018-10-05T17:22:36.605Z,26.8
2018-10-05T17:27:46.349Z,26.3
2018-10-05T17:37:58.937Z,27.2
2018-10-05T17:53:21.800Z,27.5
2018-10-05T17:58:29.069Z,28.2
2018-10-05T18:03:36.609Z,28.1
2018-10-05T18:08:44.203Z,29.2
2018-10-05T18:13:51.791Z,29.7
2018-10-05T18:18:59.451Z,29.7
2018-10-05T18:24:07.240Z,30.2
2018-10-05T18:29:16.338Z,29.8
2018-10-05T18:34:23.495Z,31.1
2018-10-05T18:39:30.092Z,30.5
2018-10-05T18:49:45.478Z,31
2018-10-05T18:54:53.276Z,31.8
2018-10-05T19:05:08.722Z,31.8
2018-10-05T19:10:16.508Z,31.9
2018-10-05T19:15:24.332Z,32.1
2018-10-05T19:20:32.156Z,32.1
2018-10-05T19:25:40.011Z,32.5
2018-10-05T19:30:47.837Z,32.9
2018-10-05T19:35:55.773Z,32.6
2018-10-05T19:41:03.627Z,33.2
2018-10-05T19:46:11.538Z,33.5
2018-10-05T19:51:19.438Z,34.1
2018-10-05T19:56:27.351Z,34.1
2018-10-05T20:01:35.311Z,34
2018-10-05T20:06:44.039Z,34.1
2018-10-05T20:11:51.258Z,34.2
2018-10-05T20:16:59.178Z,34.3
2018-10-05T20:22:07.321Z,34.5
2018-10-05T20:27:15.172Z,34.6
2018-10-05T20:32:23.864Z,35.7
2018-10-05T20:37:31.224Z,35.9
2018-10-05T20:52:55.352Z,36.7
2018-10-05T20:58:03.414Z,36.9
2018-10-05T21:03:11.588Z,37.2
2018-10-05T21:08:19.562Z,37.6
2018-10-05T21:18:35.742Z,37.7
2018-10-05T21:23:43.830Z,37.8
2018-10-05T21:28:51.934Z,38.7
2018-10-05T21:34:00.054Z,38.8
2018-10-05T21:39:08.278Z,38.2
2018-10-05T21:44:16.363Z,38.3
2018-10-05T21:49:24.554Z,39.4
2018-10-05T21:54:32.659Z,39.5
2018-10-05T21:59:40.820Z,39.5
2018-10-05T22:04:48.975Z,39.6
2018-10-05T22:09:57.136Z,39.4
2018-10-05T22:15:05.364Z,40.2
2018-10-05T22:20:15.667Z,40.3
2018-10-05T22:30:29.871Z,40.8
2018-10-05T22:35:38.058Z,41.2
2018-10-05T22:40:46.240Z,40.7
2018-10-05T22:45:54.465Z,40.5
2018-10-05T22:51:02.651Z,40.5
2018-10-05T22:56:10.903Z,41.2
2018-10-05T23:01:19.086Z,41.6
2018-10-05T23:06:27.317Z,41.3
2018-10-05T23:11:35.546Z,41.4
2018-10-05T23:16:43.779Z,41.3
2018-10-05T23:21:52.016Z,41.3
2018-10-05T23:27:00.243Z,41.5
2018-10-05T23:32:08.467Z,42.1
2018-10-05T23:37:16.684Z,41.8
2018-10-05T23:42:24.923Z,42.1
2018-10-05T23:47:33.143Z,42.3
2018-10-05T23:52:41.395Z,42.3
